Raytown, Texas
Current Conditions -  °F | °C
As of 8:35 PM on Friday 28 Nov 2014 (Local Time) from KSWW Reporting Station
Clear Clear  
Wind Chill: 59°   Ceiling: Unl
Heat Index: 59°   Visibility: 10mi
Dew Point: 37°   Wind: 18mph
Humidity: 44%   Direction: 180°S
Pressure: 30.02"   Gusts: 24mph
Location:  32.8661°N, 100.503°W
Report Text: KSWW 290235Z AUTO 18016G21KT 10SM CLR 15/03 A3002 RMK AO2 T01520030
Loading
Personal Weather Stations






























Interactive Weather Map New forecast layout! Learn more

10-Day Weather Forecast

Advertisements
Track Severe Weather on mobile